Seven Devils, North Carolina
Current Conditions -  °F | °C
As of 9:15 AM on Thursday 29 Jan 2015 (Local Time) from KTNB Reporting Station
Clear Clear  
Wind Chill: 32°   Ceiling: Unl
Heat Index: 32°   Visibility: 10mi
Dew Point: 19°   Wind: 0mph
Humidity: 58%   Direction: NA
Pressure: 30.17"   Gusts: NA
Location:  36.1797°N, 81.8424°W
Report Text: KTNB 291415Z AUTO 00000KT 10SM CLR 00/M07 A3017 RMK AO2 T00021073
Loading
Personal Weather Stations






























Interactive Weather Map New forecast layout! Learn more

10-Day Weather Forecast

Advertisements
Track Severe Weather on mobile